createdAt,value
2019-03-06T00:01:16.084Z,13.38
2019-03-06T00:03:44.490Z,12.63
2019-03-06T00:06:16.608Z,13.85
2019-03-06T00:08:41.431Z,11.60
2019-03-06T00:11:09.954Z,12.70
2019-03-06T00:13:38.393Z,12.37
2019-03-06T00:16:07.609Z,13.03
2019-03-06T00:18:36.172Z,10.90
2019-03-06T00:21:04.596Z,12.00
2019-03-06T00:23:34.106Z,11.90
2019-03-06T00:26:02.534Z,11.65
2019-03-06T00:28:32.056Z,12.40
2019-03-06T00:31:02.575Z,11.03
2019-03-06T00:33:32.379Z,10.20
2019-03-06T00:36:01.856Z,11.25
2019-03-06T00:38:30.380Z,10.93
2019-03-06T00:41:24.415Z,10.65
2019-03-06T00:43:52.944Z,11.28
2019-03-06T00:46:22.105Z,11.08
2019-03-06T00:48:50.623Z,11.10
2019-03-06T00:51:19.089Z,11.38
2019-03-06T00:53:47.652Z,11.85
2019-03-06T00:56:16.149Z,11.33
2019-03-06T00:58:46.594Z,12.93
2019-03-06T01:01:15.332Z,12.78
2019-03-06T01:03:43.865Z,11.28
2019-03-06T01:06:12.332Z,11.55
2019-03-06T01:08:40.904Z,11.20
2019-03-06T01:11:09.381Z,10.88
2019-03-06T01:13:38.197Z,10.55
2019-03-06T01:16:06.810Z,11.65
2019-03-06T01:18:35.256Z,11.45
2019-03-06T01:21:03.714Z,11.78
2019-03-06T01:23:32.220Z,11.00
2019-03-06T01:26:01.701Z,11.15
2019-03-06T01:28:30.219Z,11.30
2019-03-06T01:30:58.673Z,11.53
2019-03-06T01:33:34.259Z,10.28
2019-03-06T01:36:14.290Z,11.85
2019-03-06T01:39:04.576Z,12.70
2019-03-06T01:41:44.090Z,11.08
2019-03-06T01:44:35.524Z,10.78
2019-03-06T01:49:32.794Z,11.60
2019-03-06T01:52:01.310Z,11.43
2019-03-06T01:54:29.857Z,12.00
2019-03-06T01:56:58.217Z,11.45
2019-03-06T01:59:27.109Z,11.80
2019-03-06T02:01:55.595Z,11.50
2019-03-06T02:04:24.097Z,11.25
2019-03-06T02:06:52.555Z,10.80
2019-03-06T02:09:21.066Z,11.28
2019-03-06T02:11:49.608Z,11.53
2019-03-06T02:14:18.007Z,11.33
2019-03-06T02:16:46.528Z,10.98
2019-03-06T02:19:14.978Z,10.83
2019-03-06T02:21:43.451Z,11.78
2019-03-06T02:24:11.937Z,11.95
2019-03-06T02:26:40.825Z,13.28
2019-03-06T02:29:09.307Z,11.40
2019-03-06T02:31:38.510Z,12.35
2019-03-06T02:34:07.361Z,11.22
2019-03-06T02:36:35.869Z,13.48
2019-03-06T02:39:04.781Z,13.48
2019-03-06T02:41:33.282Z,13.22
2019-03-06T02:44:01.742Z,11.78
2019-03-06T02:46:30.221Z,12.70
2019-03-06T02:48:58.664Z,11.68
2019-03-06T02:51:27.463Z,13.43
2019-03-06T02:53:55.962Z,12.63
2019-03-06T02:56:24.440Z,14.80
2019-03-06T02:59:14.980Z,14.53
2019-03-06T03:02:14.659Z,14.25
2019-03-06T03:04:52.373Z,13.05
2019-03-06T03:07:20.818Z,14.05
2019-03-06T03:09:50.328Z,12.90
2019-03-06T03:12:18.811Z,12.55
2019-03-06T03:14:47.298Z,11.97
2019-03-06T03:17:15.767Z,12.85
2019-03-06T03:19:44.231Z,14.20
2019-03-06T03:22:12.728Z,13.50
2019-03-06T03:24:41.197Z,12.40
2019-03-06T03:27:09.700Z,13.00
2019-03-06T03:29:39.364Z,13.08
2019-03-06T03:32:07.887Z,13.93
2019-03-06T03:34:36.359Z,13.13
2019-03-06T03:37:05.131Z,45.58
2019-03-06T03:39:33.907Z,30.02
2019-03-06T03:42:02.791Z,25.95
2019-03-06T03:44:31.298Z,14.95
2019-03-06T03:47:00.016Z,14.58
2019-03-06T03:49:28.504Z,121.80
2019-03-06T03:51:56.949Z,112.42
2019-03-06T03:54:26.473Z,19.98
2019-03-06T03:56:55.178Z,13.30
2019-03-06T03:59:23.627Z,15.38
2019-03-06T04:01:52.093Z,13.90
2019-03-06T04:04:20.589Z,13.83
2019-03-06T04:06:49.441Z,12.88
2019-03-06T04:09:17.974Z,14.47
2019-03-06T04:11:46.439Z,14.25
2019-03-06T04:14:14.917Z,13.53
2019-03-06T04:16:43.414Z,13.75
2019-03-06T04:19:11.882Z,13.53
2019-03-06T04:21:40.637Z,13.45
2019-03-06T04:24:09.872Z,13.45
2019-03-06T04:26:38.334Z,13.70
2019-03-06T04:29:06.826Z,12.55
2019-03-06T04:31:35.296Z,12.65
2019-03-06T04:34:03.969Z,11.95
2019-03-06T04:36:32.472Z,12.70
2019-03-06T04:39:00.951Z,13.83
2019-03-06T04:41:30.527Z,13.40
2019-03-06T04:43:58.864Z,13.10
2019-03-06T04:46:27.310Z,13.13
2019-03-06T04:48:55.809Z,13.75
2019-03-06T04:51:24.258Z,17.15
2019-03-06T04:53:52.790Z,21.48
2019-03-06T04:56:21.510Z,18.30
2019-03-06T04:58:51.322Z,16.55
2019-03-06T05:01:20.418Z,14.68
2019-03-06T05:03:48.927Z,14.40
2019-03-06T05:06:17.436Z,12.33
2019-03-06T05:08:45.886Z,12.73
2019-03-06T05:11:14.761Z,12.93
2019-03-06T05:13:43.254Z,13.35
2019-03-06T05:16:12.017Z,13.90
2019-03-06T05:18:51.928Z,14.10
2019-03-06T05:21:20.664Z,12.88
2019-03-06T05:23:49.155Z,12.63
2019-03-06T05:26:17.665Z,13.08
2019-03-06T05:28:46.125Z,12.40
2019-03-06T05:31:14.646Z,12.93
2019-03-06T05:33:43.097Z,13.05
2019-03-06T05:36:27.291Z,12.98
2019-03-06T05:39:08.934Z,17.32
2019-03-06T05:41:37.403Z,13.43
2019-03-06T05:44:05.902Z,12.93
2019-03-06T05:46:35.396Z,14.23
2019-03-06T05:49:04.135Z,14.20
2019-03-06T05:51:32.662Z,13.70
2019-03-06T05:54:01.151Z,13.10
2019-03-06T05:56:29.614Z,13.53
2019-03-06T05:58:58.098Z,14.40
2019-03-06T06:01:26.595Z,14.55
2019-03-06T06:03:55.094Z,13.80
2019-03-06T06:06:23.933Z,15.05
2019-03-06T06:08:52.473Z,13.28
2019-03-06T06:11:20.903Z,14.95
2019-03-06T06:13:49.657Z,16.23
2019-03-06T06:16:18.477Z,16.85
2019-03-06T06:18:46.986Z,17.70
2019-03-06T06:21:40.647Z,17.40
2019-03-06T06:24:14.653Z,18.35
2019-03-06T06:26:43.126Z,20.40
2019-03-06T06:29:12.632Z,19.27
2019-03-06T06:31:42.647Z,20.30
2019-03-06T06:34:11.648Z,20.65
2019-03-06T06:36:40.532Z,20.65
2019-03-06T06:39:09.406Z,21.40
2019-03-06T06:41:38.929Z,21.50
2019-03-06T06:44:07.403Z,22.25
2019-03-06T06:46:35.883Z,21.30
2019-03-06T06:49:04.364Z,23.55
2019-03-06T06:51:59.662Z,20.82
2019-03-06T06:54:33.495Z,22.00
2019-03-06T06:57:16.748Z,22.95
2019-03-06T06:59:48.243Z,24.98
2019-03-06T07:03:11.676Z,24.63
2019-03-06T07:05:59.423Z,23.10
2019-03-06T07:09:05.515Z,22.70
2019-03-06T07:11:58.104Z,21.65
2019-03-06T07:14:48.716Z,21.85
2019-03-06T07:17:29.325Z,20.83
2019-03-06T07:20:07.271Z,19.32
2019-03-06T07:22:42.410Z,18.82
2019-03-06T07:25:31.936Z,17.00
2019-03-06T07:28:23.606Z,16.00
2019-03-06T07:31:10.284Z,14.80
2019-03-06T07:33:56.834Z,13.88
2019-03-06T07:36:44.658Z,13.10
2019-03-06T07:39:18.361Z,12.30
2019-03-06T07:42:05.281Z,12.03
2019-03-06T07:44:51.653Z,12.03
2019-03-06T07:47:57.975Z,10.15
2019-03-06T07:50:33.383Z,9.75
2019-03-06T07:53:52.310Z,9.53
2019-03-06T07:56:27.583Z,8.38
2019-03-06T07:58:56.682Z,8.75
2019-03-06T08:01:26.159Z,11.88
2019-03-06T08:04:05.435Z,9.78
2019-03-06T08:06:33.859Z,9.20
2019-03-06T08:09:02.350Z,8.83
2019-03-06T08:11:35.872Z,9.13
2019-03-06T08:14:22.615Z,8.95
2019-03-06T08:16:59.134Z,8.20
2019-03-06T08:19:41.254Z,7.37
2019-03-06T08:22:29.007Z,8.73
2019-03-06T08:25:22.448Z,8.75
2019-03-06T08:27:50.977Z,8.33
2019-03-06T08:30:21.418Z,7.62
2019-03-06T08:32:49.900Z,7.80
2019-03-06T08:35:18.378Z,7.60
2019-03-06T08:37:46.868Z,7.60
2019-03-06T08:40:15.647Z,7.00
2019-03-06T08:42:44.133Z,6.83
2019-03-06T08:45:12.649Z,7.58
2019-03-06T08:47:48.591Z,7.62
2019-03-06T08:50:40.512Z,7.28
2019-03-06T08:53:28.616Z,6.87
2019-03-06T08:56:22.019Z,6.90
2019-03-06T08:59:12.544Z,6.08
2019-03-06T09:01:59.822Z,5.70
2019-03-06T09:04:29.806Z,4.87
2019-03-06T09:07:26.735Z,5.58
2019-03-06T09:10:09.626Z,5.55
2019-03-06T09:12:46.536Z,5.08
2019-03-06T09:15:32.934Z,5.00
2019-03-06T09:18:29.766Z,5.40
2019-03-06T09:21:18.418Z,5.30
2019-03-06T09:24:10.248Z,5.25
2019-03-06T09:27:04.055Z,5.10
2019-03-06T09:29:48.535Z,4.83
2019-03-06T09:32:28.635Z,5.70
2019-03-06T09:35:19.999Z,5.62
2019-03-06T09:40:45.988Z,5.95
2019-03-06T09:43:25.838Z,5.45
2019-03-06T09:46:20.680Z,4.87
2019-03-06T09:49:01.604Z,5.12
2019-03-06T09:51:47.836Z,5.10
2019-03-06T09:54:34.411Z,4.22
2019-03-06T09:57:11.990Z,4.58
2019-03-06T10:00:00.019Z,4.85
2019-03-06T10:02:37.211Z,3.98
2019-03-06T10:05:19.014Z,4.30
2019-03-06T10:08:05.827Z,4.35
2019-03-06T10:10:57.800Z,3.60
2019-03-06T10:13:33.521Z,3.90
2019-03-06T10:16:16.118Z,3.72
2019-03-06T10:18:50.846Z,3.80
2019-03-06T10:21:19.559Z,3.42
2019-03-06T10:23:49.017Z,3.65
2019-03-06T10:26:36.085Z,3.15
2019-03-06T10:29:04.618Z,2.80
2019-03-06T10:31:33.477Z,2.87
2019-03-06T10:34:02.467Z,2.45
2019-03-06T10:36:31.987Z,2.15
2019-03-06T10:39:02.411Z,2.35
2019-03-06T10:41:31.930Z,2.43
2019-03-06T10:44:00.709Z,2.35
2019-03-06T10:46:29.177Z,2.87
2019-03-06T10:48:57.657Z,2.33
2019-03-06T10:51:26.150Z,2.85
2019-03-06T10:53:54.562Z,2.40
2019-03-06T10:56:23.003Z,2.60
2019-03-06T10:58:51.490Z,2.52
2019-03-06T11:01:19.956Z,3.02
2019-03-06T11:04:13.786Z,2.40
2019-03-06T11:06:43.012Z,2.92
2019-03-06T11:09:11.516Z,2.52
2019-03-06T11:11:39.992Z,2.73
2019-03-06T11:14:08.482Z,2.77
2019-03-06T11:16:40.025Z,3.17
2019-03-06T11:19:05.446Z,3.30
2019-03-06T11:21:33.920Z,3.02
2019-03-06T11:24:02.417Z,3.35
2019-03-06T11:26:30.892Z,2.90
2019-03-06T11:28:59.551Z,2.90
2019-03-06T11:31:28.048Z,3.12
2019-03-06T11:33:56.526Z,2.50
2019-03-06T11:36:25.008Z,3.40
2019-03-06T11:38:53.478Z,3.40
2019-03-06T11:41:22.363Z,3.10
2019-03-06T11:43:51.463Z,3.08
2019-03-06T11:46:19.563Z,3.30
2019-03-06T11:48:48.017Z,3.45
2019-03-06T11:51:16.501Z,3.08
2019-03-06T11:53:45.413Z,3.12
2019-03-06T11:56:14.358Z,2.72
2019-03-06T11:58:44.613Z,3.00
2019-03-06T12:01:15.847Z,2.70
2019-03-06T12:03:44.151Z,2.85
2019-03-06T12:06:12.624Z,2.90
2019-03-06T12:08:45.491Z,2.65
2019-03-06T12:11:09.616Z,2.40
2019-03-06T12:13:38.082Z,2.35
2019-03-06T12:16:06.824Z,2.55
2019-03-06T12:18:35.710Z,2.80
2019-03-06T12:21:04.099Z,3.00
2019-03-06T12:23:32.982Z,2.58
2019-03-06T12:26:01.473Z,1.72
2019-03-06T12:28:30.355Z,2.12
2019-03-06T12:30:59.142Z,1.95
2019-03-06T12:33:28.606Z,1.90
2019-03-06T12:35:57.029Z,1.50
2019-03-06T12:38:25.528Z,1.60
2019-03-06T12:40:53.993Z,1.72
2019-03-06T12:43:23.610Z,1.62
2019-03-06T12:46:10.018Z,1.55
2019-03-06T12:48:38.518Z,1.67
2019-03-06T12:51:06.960Z,1.32
2019-03-06T12:53:36.056Z,1.37
2019-03-06T12:56:05.554Z,1.50
2019-03-06T12:58:34.059Z,1.65
2019-03-06T13:01:04.665Z,1.40
2019-03-06T13:03:33.166Z,1.50
2019-03-06T13:06:02.654Z,1.40
2019-03-06T13:08:31.157Z,1.27
2019-03-06T13:10:59.639Z,1.40
2019-03-06T13:13:35.543Z,1.35
2019-03-06T13:15:56.831Z,1.50
2019-03-06T13:18:25.282Z,1.30
2019-03-06T13:20:56.928Z,1.75
2019-03-06T13:23:25.426Z,1.35
2019-03-06T13:25:53.894Z,1.30
2019-03-06T13:28:25.127Z,1.52
2019-03-06T13:30:53.609Z,1.20
2019-03-06T13:33:33.956Z,1.22
2019-03-06T13:36:02.447Z,1.35
2019-03-06T13:38:30.951Z,1.12
2019-03-06T13:41:01.459Z,1.32
2019-03-06T13:43:30.985Z,1.30
2019-03-06T13:46:00.476Z,1.30
2019-03-06T13:48:29.563Z,0.90
2019-03-06T13:50:58.038Z,1.40
2019-03-06T13:53:26.539Z,1.45
2019-03-06T13:55:55.001Z,1.20
2019-03-06T13:58:23.508Z,1.20
2019-03-06T14:00:52.265Z,1.30
2019-03-06T14:03:21.142Z,1.00
2019-03-06T14:05:49.944Z,1.10
2019-03-06T14:08:18.512Z,1.12
2019-03-06T14:10:47.044Z,1.22
2019-03-06T14:13:15.492Z,1.17
2019-03-06T14:15:53.433Z,1.32
2019-03-06T14:18:13.176Z,1.32
2019-03-06T14:20:41.671Z,1.20
2019-03-06T14:23:10.133Z,1.40
2019-03-06T14:25:39.323Z,1.52
2019-03-06T14:28:07.802Z,1.37
2019-03-06T14:30:36.315Z,1.35
2019-03-06T14:33:04.862Z,1.25
2019-03-06T14:35:33.268Z,1.17
2019-03-06T14:38:01.778Z,1.40
2019-03-06T14:40:30.516Z,1.50
2019-03-06T14:43:00.035Z,1.65
2019-03-06T14:45:28.557Z,1.35
2019-03-06T14:47:56.994Z,1.42
2019-03-06T14:50:25.494Z,1.55
2019-03-06T14:52:54.974Z,1.32
2019-03-06T14:55:23.484Z,1.25
2019-03-06T14:57:53.038Z,1.53
2019-03-06T15:00:22.122Z,1.90
2019-03-06T15:02:50.627Z,1.50
2019-03-06T15:05:19.137Z,1.17
2019-03-06T15:07:49.648Z,1.67
2019-03-06T15:10:18.143Z,1.50
2019-03-06T15:12:46.608Z,1.42
2019-03-06T15:15:15.818Z,1.92
2019-03-06T15:17:44.316Z,1.40
2019-03-06T15:20:13.709Z,1.27
2019-03-06T15:22:42.179Z,1.12
2019-03-06T15:25:12.030Z,1.50
2019-03-06T15:27:41.545Z,1.30
2019-03-06T15:30:10.705Z,2.00
2019-03-06T15:32:39.870Z,1.50
2019-03-06T15:35:08.381Z,1.50
2019-03-06T15:37:36.849Z,1.70
2019-03-06T15:40:06.583Z,1.85
2019-03-06T15:42:35.050Z,1.40
2019-03-06T15:45:03.605Z,1.50
2019-03-06T15:47:33.811Z,1.50
2019-03-06T15:50:00.774Z,1.70
2019-03-06T15:52:29.176Z,1.50
2019-03-06T15:54:57.721Z,1.90
2019-03-06T15:57:26.238Z,1.60
2019-03-06T15:59:55.106Z,1.85
2019-03-06T16:02:23.628Z,1.20
2019-03-06T16:04:52.072Z,1.65
2019-03-06T16:07:24.412Z,1.70
2019-03-06T16:09:55.248Z,1.87
2019-03-06T16:12:21.737Z,1.47
2019-03-06T16:14:50.213Z,1.95
2019-03-06T16:17:18.697Z,1.55
2019-03-06T16:19:47.169Z,1.82
2019-03-06T16:22:16.374Z,1.80
2019-03-06T16:24:45.138Z,2.40
2019-03-06T16:27:15.570Z,2.00
2019-03-06T16:29:47.119Z,1.85
2019-03-06T16:32:16.330Z,1.80
2019-03-06T16:37:20.786Z,2.00
2019-03-06T16:39:49.245Z,1.87
2019-03-06T16:42:18.126Z,1.87
2019-03-06T16:44:47.746Z,1.90
2019-03-06T16:47:16.519Z,2.08
2019-03-06T16:49:45.298Z,2.50
2019-03-06T16:52:13.783Z,2.52
2019-03-06T16:54:42.305Z,2.50
2019-03-06T16:57:12.802Z,2.10
2019-03-06T16:59:41.285Z,3.10
2019-03-06T17:02:09.753Z,2.00
2019-03-06T17:04:38.504Z,2.87
2019-03-06T17:07:07.023Z,3.62
2019-03-06T17:09:35.520Z,4.12
2019-03-06T17:12:03.996Z,4.67
2019-03-06T17:14:32.484Z,4.35
2019-03-06T17:17:00.941Z,4.35
2019-03-06T17:19:29.441Z,4.00
2019-03-06T17:21:57.939Z,6.90
2019-03-06T17:24:26.460Z,6.35
2019-03-06T17:26:54.979Z,4.45
2019-03-06T17:29:24.511Z,6.40
2019-03-06T17:31:54.342Z,5.87
2019-03-06T17:34:21.505Z,5.25
2019-03-06T17:36:50.220Z,3.72
2019-03-06T17:39:18.996Z,4.00
2019-03-06T17:41:47.490Z,3.95
2019-03-06T17:44:18.054Z,4.50
2019-03-06T17:46:46.857Z,3.77
2019-03-06T17:49:15.633Z,7.78
2019-03-06T17:51:44.468Z,6.17
2019-03-06T17:54:12.970Z,3.12
2019-03-06T17:56:41.476Z,3.90
2019-03-06T17:59:10.222Z,3.45
2019-03-06T18:01:38.733Z,2.95
2019-03-06T18:04:15.146Z,3.62
2019-03-06T18:06:43.653Z,4.15
2019-03-06T18:09:12.056Z,4.60
2019-03-06T18:11:40.524Z,4.42
2019-03-06T18:14:10.038Z,4.42
2019-03-06T18:16:38.518Z,5.67
2019-03-06T18:19:07.278Z,5.20
2019-03-06T18:21:38.030Z,5.05
2019-03-06T18:24:06.527Z,5.70
2019-03-06T18:26:35.302Z,6.05
2019-03-06T18:29:04.070Z,5.05
2019-03-06T18:31:32.667Z,10.03
2019-03-06T18:34:02.477Z,6.15
2019-03-06T18:36:30.877Z,4.95
2019-03-06T18:38:59.286Z,5.40
2019-03-06T18:41:28.855Z,5.80
2019-03-06T18:43:57.321Z,5.17
2019-03-06T18:46:25.826Z,4.55
2019-03-06T18:48:54.290Z,4.65
2019-03-06T18:51:22.778Z,5.03
2019-03-06T18:53:51.255Z,8.13
2019-03-06T18:56:19.747Z,5.72
2019-03-06T18:58:48.215Z,5.87
2019-03-06T19:01:17.712Z,4.85
2019-03-06T19:03:46.930Z,7.35
2019-03-06T19:06:15.414Z,5.58
2019-03-06T19:08:43.899Z,5.60
2019-03-06T19:11:17.024Z,5.10
2019-03-06T19:13:41.872Z,4.28
2019-03-06T19:16:10.350Z,5.83
2019-03-06T19:18:38.843Z,4.37
2019-03-06T19:21:07.690Z,6.30
2019-03-06T19:23:36.211Z,5.20
2019-03-06T19:26:04.959Z,4.50
2019-03-06T19:28:34.486Z,4.45
2019-03-06T19:31:03.366Z,5.60
2019-03-06T19:33:31.877Z,4.60
2019-03-06T19:36:00.348Z,5.85
2019-03-06T19:38:28.835Z,4.70
2019-03-06T19:40:57.239Z,4.67
2019-03-06T19:43:25.693Z,6.60
2019-03-06T19:45:54.164Z,5.58
2019-03-06T19:48:22.653Z,6.25
2019-03-06T19:50:51.143Z,6.62
2019-03-06T19:53:19.595Z,6.80
2019-03-06T19:55:48.083Z,6.78
2019-03-06T19:58:17.285Z,5.37
2019-03-06T20:00:45.769Z,6.05
2019-03-06T20:03:14.271Z,5.35
2019-03-06T20:05:43.001Z,5.12
2019-03-06T20:08:11.839Z,5.58
2019-03-06T20:10:41.325Z,5.03
2019-03-06T20:13:09.828Z,5.12
2019-03-06T20:15:38.359Z,4.45
2019-03-06T20:18:07.168Z,5.85
2019-03-06T20:20:35.646Z,6.10
2019-03-06T20:23:04.483Z,6.33
2019-03-06T20:25:32.918Z,6.67
2019-03-06T20:28:02.106Z,5.22
2019-03-06T20:30:32.544Z,5.40
2019-03-06T20:33:01.020Z,5.47
2019-03-06T20:35:29.526Z,5.10
2019-03-06T20:37:58.181Z,5.45
2019-03-06T20:40:27.980Z,8.28
2019-03-06T20:42:56.391Z,7.00
2019-03-06T20:45:24.881Z,14.47
2019-03-06T20:47:53.353Z,10.68
2019-03-06T20:50:21.834Z,8.65
2019-03-06T20:52:50.646Z,8.63
2019-03-06T20:55:18.801Z,7.15
2019-03-06T20:58:07.058Z,6.42
2019-03-06T21:00:44.011Z,7.07
2019-03-06T21:03:12.480Z,5.83
2019-03-06T21:05:40.973Z,5.37
2019-03-06T21:08:09.437Z,7.65
2019-03-06T21:10:38.224Z,5.28
2019-03-06T21:13:06.708Z,5.28
2019-03-06T21:15:35.272Z,4.60
2019-03-06T21:18:03.767Z,5.20
2019-03-06T21:20:32.289Z,4.67
2019-03-06T21:23:00.738Z,4.55
2019-03-06T21:25:29.484Z,5.60
2019-03-06T21:27:58.244Z,6.55
2019-03-06T21:30:29.984Z,7.35
2019-03-06T21:32:58.391Z,5.20
2019-03-06T21:35:27.216Z,4.90
2019-03-06T21:37:55.705Z,5.33
2019-03-06T21:40:24.483Z,5.33
2019-03-06T21:42:52.975Z,5.20
2019-03-06T21:45:21.373Z,5.25
2019-03-06T21:47:49.833Z,5.08
2019-03-06T21:50:18.376Z,4.80
2019-03-06T21:52:46.801Z,5.70
2019-03-06T21:55:15.301Z,5.60
2019-03-06T21:57:44.811Z,4.70
2019-03-06T22:00:15.070Z,5.03
2019-03-06T22:02:43.604Z,4.77
2019-03-06T22:05:13.176Z,3.92
2019-03-06T22:07:43.968Z,4.20
2019-03-06T22:10:12.324Z,4.27
2019-03-06T22:12:40.788Z,4.60
2019-03-06T22:15:09.876Z,4.37
2019-03-06T22:17:39.410Z,3.95
2019-03-06T22:20:09.323Z,4.03
2019-03-06T22:22:38.188Z,4.70
2019-03-06T22:25:07.105Z,4.72
2019-03-06T22:27:35.568Z,4.42
2019-03-06T22:30:04.369Z,4.92
2019-03-06T22:32:32.835Z,4.75
2019-03-06T22:35:01.312Z,4.45
2019-03-06T22:37:29.806Z,4.30
2019-03-06T22:39:58.282Z,4.75
2019-03-06T22:42:27.156Z,4.87
2019-03-06T22:44:55.671Z,5.42
2019-03-06T22:47:24.400Z,6.58
2019-03-06T22:49:53.830Z,4.58
2019-03-06T22:52:23.361Z,4.60
2019-03-06T22:54:51.830Z,4.40
2019-03-06T22:57:20.724Z,4.67
2019-03-06T22:59:49.194Z,5.05
2019-03-06T23:02:18.712Z,5.03
2019-03-06T23:04:47.405Z,5.03
2019-03-06T23:07:15.874Z,4.70
2019-03-06T23:09:44.344Z,5.35
2019-03-06T23:12:15.142Z,5.30
2019-03-06T23:14:43.565Z,5.00
2019-03-06T23:17:12.440Z,4.90
2019-03-06T23:19:40.941Z,5.40
2019-03-06T23:22:09.411Z,5.20
2019-03-06T23:24:37.901Z,5.42
2019-03-06T23:27:06.359Z,4.65
2019-03-06T23:29:34.852Z,5.00
2019-03-06T23:32:04.343Z,4.83
2019-03-06T23:34:32.851Z,5.17
2019-03-06T23:37:01.325Z,5.78
2019-03-06T23:39:29.798Z,5.20
2019-03-06T23:41:58.265Z,4.85
2019-03-06T23:44:27.163Z,7.92
2019-03-06T23:46:55.641Z,5.97
2019-03-06T23:49:24.138Z,5.80
2019-03-06T23:52:09.121Z,5.28
2019-03-06T23:54:38.617Z,4.90
2019-03-06T23:57:07.484Z,5.45
2019-03-06T23:59:36.000Z,5.85
